sensor_id;sensor_type;location;lat;lon;timestamp;P1;durP1;ratioP1;P2;durP2;ratioP2
6755;SDS011;3415;51.148;7.014;2023-07-29T00:01:36;1.90;;;1.80;;
6755;SDS011;3415;51.148;7.014;2023-07-29T00:04:05;1.67;;;1.57;;
6755;SDS011;3415;51.148;7.014;2023-07-29T00:06:33;2.07;;;1.87;;
6755;SDS011;3415;51.148;7.014;2023-07-29T00:09:01;1.93;;;1.47;;
6755;SDS011;3415;51.148;7.014;2023-07-29T00:11:28;3.50;;;1.97;;
6755;SDS011;3415;51.148;7.014;2023-07-29T00:13:57;3.13;;;2.30;;
6755;SDS011;3415;51.148;7.014;2023-07-29T00:16:24;1.63;;;1.53;;
6755;SDS011;3415;51.148;7.014;2023-07-29T00:18:51;1.93;;;1.70;;
6755;SDS011;3415;51.148;7.014;2023-07-29T00:21:18;1.80;;;1.70;;
6755;SDS011;3415;51.148;7.014;2023-07-29T00:23:45;1.90;;;1.70;;
6755;SDS011;3415;51.148;7.014;2023-07-29T00:26:13;2.87;;;2.17;;
6755;SDS011;3415;51.148;7.014;2023-07-29T00:28:40;1.70;;;1.60;;
6755;SDS011;3415;51.148;7.014;2023-07-29T00:31:07;1.80;;;1.70;;
6755;SDS011;3415;51.148;7.014;2023-07-29T00:33:34;1.80;;;1.70;;
6755;SDS011;3415;51.148;7.014;2023-07-29T00:36:01;1.90;;;1.80;;
6755;SDS011;3415;51.148;7.014;2023-07-29T00:38:28;1.90;;;1.80;;
6755;SDS011;3415;51.148;7.014;2023-07-29T00:40:55;1.90;;;1.80;;
6755;SDS011;3415;51.148;7.014;2023-07-29T00:43:25;2.40;;;2.00;;
6755;SDS011;3415;51.148;7.014;2023-07-29T00:45:52;2.00;;;1.87;;
6755;SDS011;3415;51.148;7.014;2023-07-29T00:48:19;1.77;;;1.60;;
6755;SDS011;3415;51.148;7.014;2023-07-29T00:50:47;1.83;;;1.73;;
6755;SDS011;3415;51.148;7.014;2023-07-29T00:53:14;1.90;;;1.80;;
6755;SDS011;3415;51.148;7.014;2023-07-29T00:55:41;1.93;;;1.73;;
6755;SDS011;3415;51.148;7.014;2023-07-29T00:58:09;1.90;;;1.80;;
6755;SDS011;3415;51.148;7.014;2023-07-29T01:00:38;2.00;;;1.80;;
6755;SDS011;3415;51.148;7.014;2023-07-29T01:03:05;4.97;;;1.77;;
6755;SDS011;3415;51.148;7.014;2023-07-29T01:05:35;4.13;;;1.80;;
6755;SDS011;3415;51.148;7.014;2023-07-29T01:08:13;1.60;;;1.50;;
6755;SDS011;3415;51.148;7.014;2023-07-29T01:10:58;3.43;;;1.93;;
6755;SDS011;3415;51.148;7.014;2023-07-29T01:13:41;2.13;;;1.80;;
6755;SDS011;3415;51.148;7.014;2023-07-29T01:16:17;1.70;;;1.60;;
6755;SDS011;3415;51.148;7.014;2023-07-29T01:18:50;1.60;;;1.50;;
6755;SDS011;3415;51.148;7.014;2023-07-29T01:21:21;1.67;;;1.57;;
6755;SDS011;3415;51.148;7.014;2023-07-29T01:27:00;1.57;;;1.47;;
6755;SDS011;3415;51.148;7.014;2023-07-29T01:29:29;3.93;;;1.73;;
6755;SDS011;3415;51.148;7.014;2023-07-29T01:31:57;1.90;;;1.80;;
6755;SDS011;3415;51.148;7.014;2023-07-29T01:34:32;1.90;;;1.80;;
6755;SDS011;3415;51.148;7.014;2023-07-29T01:37:06;3.20;;;1.90;;
6755;SDS011;3415;51.148;7.014;2023-07-29T01:39:39;1.80;;;1.70;;
6755;SDS011;3415;51.148;7.014;2023-07-29T01:42:08;2.30;;;2.10;;
6755;SDS011;3415;51.148;7.014;2023-07-29T01:44:35;3.67;;;1.80;;
6755;SDS011;3415;51.148;7.014;2023-07-29T01:47:02;4.57;;;2.30;;
6755;SDS011;3415;51.148;7.014;2023-07-29T01:49:29;2.23;;;1.83;;
6755;SDS011;3415;51.148;7.014;2023-07-29T01:51:56;2.27;;;1.67;;
6755;SDS011;3415;51.148;7.014;2023-07-29T01:54:23;2.40;;;2.10;;
6755;SDS011;3415;51.148;7.014;2023-07-29T01:56:52;2.30;;;2.10;;
6755;SDS011;3415;51.148;7.014;2023-07-29T01:59:18;2.20;;;2.00;;
6755;SDS011;3415;51.148;7.014;2023-07-29T02:01:45;1.90;;;1.80;;
6755;SDS011;3415;51.148;7.014;2023-07-29T02:04:13;2.20;;;2.00;;
6755;SDS011;3415;51.148;7.014;2023-07-29T02:06:40;2.17;;;1.97;;
6755;SDS011;3415;51.148;7.014;2023-07-29T02:09:07;2.23;;;2.03;;
6755;SDS011;3415;51.148;7.014;2023-07-29T02:11:34;2.03;;;1.83;;
6755;SDS011;3415;51.148;7.014;2023-07-29T02:14:02;2.23;;;2.03;;
6755;SDS011;3415;51.148;7.014;2023-07-29T02:16:29;2.90;;;2.13;;
6755;SDS011;3415;51.148;7.014;2023-07-29T02:18:57;2.20;;;2.00;;
6755;SDS011;3415;51.148;7.014;2023-07-29T02:21:24;1.80;;;1.70;;
6755;SDS011;3415;51.148;7.014;2023-07-29T02:23:51;2.00;;;1.90;;
6755;SDS011;3415;51.148;7.014;2023-07-29T02:26:18;1.77;;;1.67;;
6755;SDS011;3415;51.148;7.014;2023-07-29T02:28:45;2.23;;;1.73;;
6755;SDS011;3415;51.148;7.014;2023-07-29T02:31:15;3.40;;;2.20;;
6755;SDS011;3415;51.148;7.014;2023-07-29T02:33:46;2.40;;;2.23;;
6755;SDS011;3415;51.148;7.014;2023-07-29T02:36:13;4.33;;;2.20;;
6755;SDS011;3415;51.148;7.014;2023-07-29T02:38:40;2.90;;;2.13;;
6755;SDS011;3415;51.148;7.014;2023-07-29T02:41:08;2.53;;;2.33;;
6755;SDS011;3415;51.148;7.014;2023-07-29T02:43:37;2.40;;;2.20;;
6755;SDS011;3415;51.148;7.014;2023-07-29T02:46:06;2.27;;;2.07;;
6755;SDS011;3415;51.148;7.014;2023-07-29T02:48:34;5.60;;;2.00;;
6755;SDS011;3415;51.148;7.014;2023-07-29T02:51:01;2.30;;;2.10;;
6755;SDS011;3415;51.148;7.014;2023-07-29T02:53:28;2.17;;;1.97;;
6755;SDS011;3415;51.148;7.014;2023-07-29T02:55:55;6.73;;;2.23;;
6755;SDS011;3415;51.148;7.014;2023-07-29T02:58:21;2.23;;;2.13;;
6755;SDS011;3415;51.148;7.014;2023-07-29T03:00:48;2.07;;;1.90;;
6755;SDS011;3415;51.148;7.014;2023-07-29T03:03:16;2.67;;;2.47;;
6755;SDS011;3415;51.148;7.014;2023-07-29T03:05:45;2.87;;;2.40;;
6755;SDS011;3415;51.148;7.014;2023-07-29T03:08:12;3.97;;;2.20;;
6755;SDS011;3415;51.148;7.014;2023-07-29T03:10:39;7.80;;;2.47;;
6755;SDS011;3415;51.148;7.014;2023-07-29T03:13:07;2.43;;;2.23;;
6755;SDS011;3415;51.148;7.014;2023-07-29T03:15:33;2.57;;;2.23;;
6755;SDS011;3415;51.148;7.014;2023-07-29T03:18:00;2.50;;;2.30;;
6755;SDS011;3415;51.148;7.014;2023-07-29T03:20:27;3.50;;;2.50;;
6755;SDS011;3415;51.148;7.014;2023-07-29T03:22:56;2.93;;;2.57;;
6755;SDS011;3415;51.148;7.014;2023-07-29T03:25:23;3.67;;;2.90;;
6755;SDS011;3415;51.148;7.014;2023-07-29T03:27:50;3.90;;;3.50;;
6755;SDS011;3415;51.148;7.014;2023-07-29T03:30:19;3.93;;;3.63;;
6755;SDS011;3415;51.148;7.014;2023-07-29T03:32:47;5.60;;;3.20;;
6755;SDS011;3415;51.148;7.014;2023-07-29T03:35:15;8.30;;;3.70;;
6755;SDS011;3415;51.148;7.014;2023-07-29T03:37:42;4.40;;;3.50;;
6755;SDS011;3415;51.148;7.014;2023-07-29T03:40:11;5.80;;;3.33;;
6755;SDS011;3415;51.148;7.014;2023-07-29T03:42:38;4.47;;;3.53;;
6755;SDS011;3415;51.148;7.014;2023-07-29T03:45:05;3.53;;;3.23;;
6755;SDS011;3415;51.148;7.014;2023-07-29T03:47:33;3.17;;;2.87;;
6755;SDS011;3415;51.148;7.014;2023-07-29T03:50:02;4.60;;;3.20;;
6755;SDS011;3415;51.148;7.014;2023-07-29T03:52:29;4.63;;;3.27;;
6755;SDS011;3415;51.148;7.014;2023-07-29T03:54:56;3.87;;;3.50;;
6755;SDS011;3415;51.148;7.014;2023-07-29T03:57:25;5.53;;;3.70;;
6755;SDS011;3415;51.148;7.014;2023-07-29T03:59:52;3.40;;;3.10;;
6755;SDS011;3415;51.148;7.014;2023-07-29T04:02:19;3.10;;;2.90;;
6755;SDS011;3415;51.148;7.014;2023-07-29T04:04:46;4.30;;;3.90;;
6755;SDS011;3415;51.148;7.014;2023-07-29T04:07:13;3.97;;;3.50;;
6755;SDS011;3415;51.148;7.014;2023-07-29T04:09:40;3.43;;;3.13;;
6755;SDS011;3415;51.148;7.014;2023-07-29T04:12:08;4.17;;;3.60;;
6755;SDS011;3415;51.148;7.014;2023-07-29T04:14:36;3.43;;;3.13;;
6755;SDS011;3415;51.148;7.014;2023-07-29T04:17:03;5.00;;;4.10;;
6755;SDS011;3415;51.148;7.014;2023-07-29T04:19:31;4.30;;;3.20;;
6755;SDS011;3415;51.148;7.014;2023-07-29T04:21:58;3.50;;;3.20;;
6755;SDS011;3415;51.148;7.014;2023-07-29T04:24:25;4.40;;;3.17;;
6755;SDS011;3415;51.148;7.014;2023-07-29T04:26:52;4.23;;;3.40;;
6755;SDS011;3415;51.148;7.014;2023-07-29T04:29:19;5.50;;;3.70;;
6755;SDS011;3415;51.148;7.014;2023-07-29T04:31:49;6.07;;;3.80;;
6755;SDS011;3415;51.148;7.014;2023-07-29T04:34:16;3.77;;;3.37;;
6755;SDS011;3415;51.148;7.014;2023-07-29T04:36:44;5.00;;;3.93;;
6755;SDS011;3415;51.148;7.014;2023-07-29T04:39:10;6.00;;;3.60;;
6755;SDS011;3415;51.148;7.014;2023-07-29T04:41:37;5.63;;;4.40;;
6755;SDS011;3415;51.148;7.014;2023-07-29T04:44:04;3.90;;;3.17;;
6755;SDS011;3415;51.148;7.014;2023-07-29T04:46:32;4.10;;;3.57;;
6755;SDS011;3415;51.148;7.014;2023-07-29T04:49:00;3.50;;;3.00;;
6755;SDS011;3415;51.148;7.014;2023-07-29T04:51:27;5.13;;;3.03;;
6755;SDS011;3415;51.148;7.014;2023-07-29T04:53:55;3.47;;;3.17;;
6755;SDS011;3415;51.148;7.014;2023-07-29T04:56:22;4.37;;;3.20;;
6755;SDS011;3415;51.148;7.014;2023-07-29T04:58:48;5.60;;;3.60;;
6755;SDS011;3415;51.148;7.014;2023-07-29T05:01:15;5.20;;;3.10;;
6755;SDS011;3415;51.148;7.014;2023-07-29T05:03:42;5.33;;;3.07;;
6755;SDS011;3415;51.148;7.014;2023-07-29T05:06:11;3.80;;;3.30;;
6755;SDS011;3415;51.148;7.014;2023-07-29T05:08:38;6.93;;;3.17;;
6755;SDS011;3415;51.148;7.014;2023-07-29T05:11:05;5.07;;;2.90;;
6755;SDS011;3415;51.148;7.014;2023-07-29T05:13:31;6.60;;;3.40;;
6755;SDS011;3415;51.148;7.014;2023-07-29T05:15:58;4.73;;;3.27;;
6755;SDS011;3415;51.148;7.014;2023-07-29T05:18:25;7.00;;;2.47;;
6755;SDS011;3415;51.148;7.014;2023-07-29T05:20:52;3.47;;;2.83;;
6755;SDS011;3415;51.148;7.014;2023-07-29T05:23:20;3.50;;;3.00;;
6755;SDS011;3415;51.148;7.014;2023-07-29T05:25:47;5.37;;;3.07;;
6755;SDS011;3415;51.148;7.014;2023-07-29T05:28:14;3.47;;;2.43;;
6755;SDS011;3415;51.148;7.014;2023-07-29T05:30:43;3.57;;;3.10;;
6755;SDS011;3415;51.148;7.014;2023-07-29T05:33:10;4.00;;;2.50;;
6755;SDS011;3415;51.148;7.014;2023-07-29T05:35:37;7.90;;;2.63;;
6755;SDS011;3415;51.148;7.014;2023-07-29T05:38:04;3.40;;;2.80;;
6755;SDS011;3415;51.148;7.014;2023-07-29T05:40:34;3.13;;;2.50;;
6755;SDS011;3415;51.148;7.014;2023-07-29T05:43:01;6.17;;;2.50;;
6755;SDS011;3415;51.148;7.014;2023-07-29T05:45:29;6.00;;;3.20;;
6755;SDS011;3415;51.148;7.014;2023-07-29T05:47:56;3.20;;;2.53;;
6755;SDS011;3415;51.148;7.014;2023-07-29T05:50:23;2.93;;;2.63;;
6755;SDS011;3415;51.148;7.014;2023-07-29T05:52:50;3.33;;;2.70;;
6755;SDS011;3415;51.148;7.014;2023-07-29T05:55:17;2.90;;;2.57;;
6755;SDS011;3415;51.148;7.014;2023-07-29T05:57:46;3.60;;;2.80;;
6755;SDS011;3415;51.148;7.014;2023-07-29T06:00:12;6.07;;;2.57;;
6755;SDS011;3415;51.148;7.014;2023-07-29T06:02:40;3.27;;;2.97;;
6755;SDS011;3415;51.148;7.014;2023-07-29T06:05:07;3.13;;;2.83;;
6755;SDS011;3415;51.148;7.014;2023-07-29T06:07:34;3.00;;;2.70;;
6755;SDS011;3415;51.148;7.014;2023-07-29T06:10:01;6.73;;;2.90;;
6755;SDS011;3415;51.148;7.014;2023-07-29T06:12:28;2.60;;;2.40;;
6755;SDS011;3415;51.148;7.014;2023-07-29T06:14:56;2.90;;;2.50;;
6755;SDS011;3415;51.148;7.014;2023-07-29T06:17:23;2.97;;;2.77;;
6755;SDS011;3415;51.148;7.014;2023-07-29T06:19:50;2.90;;;2.23;;
6755;SDS011;3415;51.148;7.014;2023-07-29T06:22:17;4.53;;;2.17;;
6755;SDS011;3415;51.148;7.014;2023-07-29T06:24:44;3.63;;;2.87;;
6755;SDS011;3415;51.148;7.014;2023-07-29T06:27:11;2.43;;;1.97;;
6755;SDS011;3415;51.148;7.014;2023-07-29T06:29:38;4.70;;;2.03;;
6755;SDS011;3415;51.148;7.014;2023-07-29T06:32:06;2.40;;;2.17;;
6755;SDS011;3415;51.148;7.014;2023-07-29T06:34:33;2.90;;;1.97;;
6755;SDS011;3415;51.148;7.014;2023-07-29T06:37:00;6.40;;;2.17;;
6755;SDS011;3415;51.148;7.014;2023-07-29T06:39:27;3.53;;;1.80;;
6755;SDS011;3415;51.148;7.014;2023-07-29T06:41:54;1.50;;;1.43;;
6755;SDS011;3415;51.148;7.014;2023-07-29T06:44:21;1.93;;;1.70;;
6755;SDS011;3415;51.148;7.014;2023-07-29T06:46:48;1.40;;;1.30;;
6755;SDS011;3415;51.148;7.014;2023-07-29T06:49:16;1.90;;;1.77;;
6755;SDS011;3415;51.148;7.014;2023-07-29T06:51:43;1.87;;;1.77;;
6755;SDS011;3415;51.148;7.014;2023-07-29T06:54:10;1.87;;;1.77;;
6755;SDS011;3415;51.148;7.014;2023-07-29T06:56:37;2.10;;;1.90;;
6755;SDS011;3415;51.148;7.014;2023-07-29T06:59:04;1.77;;;1.30;;
6755;SDS011;3415;51.148;7.014;2023-07-29T07:01:31;1.40;;;1.40;;
6755;SDS011;3415;51.148;7.014;2023-07-29T07:03:58;1.50;;;1.40;;
6755;SDS011;3415;51.148;7.014;2023-07-29T07:06:26;2.17;;;1.50;;
6755;SDS011;3415;51.148;7.014;2023-07-29T07:08:53;3.03;;;1.40;;
6755;SDS011;3415;51.148;7.014;2023-07-29T07:11:20;3.67;;;1.80;;
6755;SDS011;3415;51.148;7.014;2023-07-29T07:13:47;1.50;;;1.40;;
6755;SDS011;3415;51.148;7.014;2023-07-29T07:16:14;4.30;;;1.80;;
6755;SDS011;3415;51.148;7.014;2023-07-29T07:18:40;2.17;;;1.73;;
6755;SDS011;3415;51.148;7.014;2023-07-29T07:21:08;1.70;;;1.60;;
6755;SDS011;3415;51.148;7.014;2023-07-29T07:23:38;2.00;;;1.83;;
6755;SDS011;3415;51.148;7.014;2023-07-29T07:26:05;1.67;;;1.57;;
6755;SDS011;3415;51.148;7.014;2023-07-29T07:28:32;1.57;;;1.47;;
6755;SDS011;3415;51.148;7.014;2023-07-29T07:30:59;1.80;;;1.53;;
6755;SDS011;3415;51.148;7.014;2023-07-29T07:33:26;3.57;;;2.27;;
6755;SDS011;3415;51.148;7.014;2023-07-29T07:35:53;3.80;;;1.90;;
6755;SDS011;3415;51.148;7.014;2023-07-29T07:38:20;3.60;;;1.77;;
6755;SDS011;3415;51.148;7.014;2023-07-29T07:40:53;2.40;;;1.50;;
6755;SDS011;3415;51.148;7.014;2023-07-29T07:43:21;5.20;;;1.63;;
6755;SDS011;3415;51.148;7.014;2023-07-29T07:45:49;1.33;;;1.23;;
6755;SDS011;3415;51.148;7.014;2023-07-29T07:48:16;1.67;;;1.50;;
6755;SDS011;3415;51.148;7.014;2023-07-29T07:50:45;3.13;;;1.53;;
6755;SDS011;3415;51.148;7.014;2023-07-29T07:53:12;1.30;;;1.20;;
6755;SDS011;3415;51.148;7.014;2023-07-29T07:55:38;1.57;;;1.40;;
6755;SDS011;3415;51.148;7.014;2023-07-29T07:58:07;1.40;;;1.30;;
6755;SDS011;3415;51.148;7.014;2023-07-29T08:00:34;11.17;;;1.53;;
6755;SDS011;3415;51.148;7.014;2023-07-29T08:03:01;1.77;;;1.43;;
6755;SDS011;3415;51.148;7.014;2023-07-29T08:05:28;1.90;;;1.43;;
6755;SDS011;3415;51.148;7.014;2023-07-29T08:07:55;1.43;;;1.33;;
6755;SDS011;3415;51.148;7.014;2023-07-29T08:10:22;1.67;;;1.30;;
6755;SDS011;3415;51.148;7.014;2023-07-29T08:12:49;5.03;;;1.43;;
6755;SDS011;3415;51.148;7.014;2023-07-29T08:15:17;1.40;;;1.30;;
6755;SDS011;3415;51.148;7.014;2023-07-29T08:17:45;1.43;;;1.33;;
6755;SDS011;3415;51.148;7.014;2023-07-29T08:20:12;1.67;;;1.53;;
6755;SDS011;3415;51.148;7.014;2023-07-29T08:22:39;2.73;;;1.20;;
6755;SDS011;3415;51.148;7.014;2023-07-29T08:25:06;1.53;;;1.10;;
6755;SDS011;3415;51.148;7.014;2023-07-29T08:27:34;1.50;;;1.40;;
6755;SDS011;3415;51.148;7.014;2023-07-29T08:30:01;1.53;;;1.23;;
6755;SDS011;3415;51.148;7.014;2023-07-29T08:32:29;1.20;;;1.20;;
6755;SDS011;3415;51.148;7.014;2023-07-29T08:34:56;1.30;;;1.20;;
6755;SDS011;3415;51.148;7.014;2023-07-29T08:37:23;1.80;;;1.17;;
6755;SDS011;3415;51.148;7.014;2023-07-29T08:39:52;1.30;;;1.13;;
6755;SDS011;3415;51.148;7.014;2023-07-29T08:42:19;2.80;;;0.97;;
6755;SDS011;3415;51.148;7.014;2023-07-29T08:44:49;1.30;;;1.20;;
6755;SDS011;3415;51.148;7.014;2023-07-29T08:47:20;1.30;;;1.20;;
6755;SDS011;3415;51.148;7.014;2023-07-29T08:49:48;3.73;;;1.17;;
6755;SDS011;3415;51.148;7.014;2023-07-29T08:52:18;3.63;;;0.93;;
6755;SDS011;3415;51.148;7.014;2023-07-29T08:54:46;0.80;;;0.80;;
6755;SDS011;3415;51.148;7.014;2023-07-29T08:57:13;1.20;;;1.10;;
6755;SDS011;3415;51.148;7.014;2023-07-29T08:59:40;1.10;;;1.10;;
6755;SDS011;3415;51.148;7.014;2023-07-29T09:02:08;1.93;;;1.00;;
6755;SDS011;3415;51.148;7.014;2023-07-29T09:04:35;2.43;;;1.17;;
6755;SDS011;3415;51.148;7.014;2023-07-29T09:07:04;1.37;;;1.27;;
6755;SDS011;3415;51.148;7.014;2023-07-29T09:09:32;1.83;;;0.90;;
6755;SDS011;3415;51.148;7.014;2023-07-29T09:11:59;2.33;;;1.10;;
6755;SDS011;3415;51.148;7.014;2023-07-29T09:14:26;1.13;;;1.07;;
6755;SDS011;3415;51.148;7.014;2023-07-29T09:16:54;1.33;;;1.20;;
6755;SDS011;3415;51.148;7.014;2023-07-29T09:19:21;1.07;;;0.97;;
6755;SDS011;3415;51.148;7.014;2023-07-29T09:21:52;10.43;;;1.20;;
6755;SDS011;3415;51.148;7.014;2023-07-29T09:24:20;0.80;;;0.80;;
6755;SDS011;3415;51.148;7.014;2023-07-29T09:26:50;1.20;;;1.10;;
6755;SDS011;3415;51.148;7.014;2023-07-29T09:29:21;3.40;;;1.27;;
6755;SDS011;3415;51.148;7.014;2023-07-29T09:31:48;1.77;;;1.50;;
6755;SDS011;3415;51.148;7.014;2023-07-29T09:34:15;1.37;;;1.27;;
6755;SDS011;3415;51.148;7.014;2023-07-29T09:36:43;1.20;;;1.00;;
6755;SDS011;3415;51.148;7.014;2023-07-29T09:39:10;2.47;;;1.07;;
6755;SDS011;3415;51.148;7.014;2023-07-29T09:41:40;8.50;;;2.33;;
6755;SDS011;3415;51.148;7.014;2023-07-29T09:44:07;2.60;;;1.20;;
6755;SDS011;3415;51.148;7.014;2023-07-29T09:46:36;1.77;;;1.17;;
6755;SDS011;3415;51.148;7.014;2023-07-29T09:49:04;0.90;;;0.90;;
6755;SDS011;3415;51.148;7.014;2023-07-29T09:51:33;1.00;;;1.00;;
6755;SDS011;3415;51.148;7.014;2023-07-29T09:54:04;1.10;;;1.00;;
6755;SDS011;3415;51.148;7.014;2023-07-29T09:56:32;6.47;;;1.03;;
6755;SDS011;3415;51.148;7.014;2023-07-29T09:59:00;1.23;;;1.10;;
6755;SDS011;3415;51.148;7.014;2023-07-29T10:01:27;2.30;;;0.90;;
6755;SDS011;3415;51.148;7.014;2023-07-29T10:03:54;1.27;;;1.17;;
6755;SDS011;3415;51.148;7.014;2023-07-29T10:06:25;0.90;;;0.90;;
6755;SDS011;3415;51.148;7.014;2023-07-29T10:08:52;1.30;;;1.20;;
6755;SDS011;3415;51.148;7.014;2023-07-29T10:11:20;1.10;;;1.00;;
6755;SDS011;3415;51.148;7.014;2023-07-29T10:13:48;3.33;;;1.10;;
6755;SDS011;3415;51.148;7.014;2023-07-29T10:16:17;2.40;;;1.23;;
6755;SDS011;3415;51.148;7.014;2023-07-29T10:18:45;1.13;;;1.00;;
6755;SDS011;3415;51.148;7.014;2023-07-29T10:21:12;0.83;;;0.83;;
6755;SDS011;3415;51.148;7.014;2023-07-29T10:23:42;1.40;;;1.10;;
6755;SDS011;3415;51.148;7.014;2023-07-29T10:26:14;1.20;;;1.10;;
6755;SDS011;3415;51.148;7.014;2023-07-29T10:28:46;1.50;;;1.23;;
6755;SDS011;3415;51.148;7.014;2023-07-29T10:31:15;1.40;;;1.30;;
6755;SDS011;3415;51.148;7.014;2023-07-29T10:33:43;0.97;;;0.87;;
6755;SDS011;3415;51.148;7.014;2023-07-29T10:36:11;1.20;;;1.10;;
6755;SDS011;3415;51.148;7.014;2023-07-29T10:38:39;0.90;;;0.90;;
6755;SDS011;3415;51.148;7.014;2023-07-29T10:41:07;0.90;;;0.90;;
6755;SDS011;3415;51.148;7.014;2023-07-29T10:43:36;2.50;;;1.40;;
6755;SDS011;3415;51.148;7.014;2023-07-29T10:46:17;2.93;;;1.20;;
6755;SDS011;3415;51.148;7.014;2023-07-29T10:48:52;1.00;;;1.00;;
6755;SDS011;3415;51.148;7.014;2023-07-29T10:51:23;1.17;;;1.13;;
6755;SDS011;3415;51.148;7.014;2023-07-29T10:53:52;3.27;;;1.60;;
6755;SDS011;3415;51.148;7.014;2023-07-29T10:56:27;1.43;;;1.30;;
6755;SDS011;3415;51.148;7.014;2023-07-29T10:58:57;2.10;;;1.37;;
6755;SDS011;3415;51.148;7.014;2023-07-29T11:01:30;2.93;;;1.40;;
6755;SDS011;3415;51.148;7.014;2023-07-29T11:09:56;1.37;;;1.00;;
6755;SDS011;3415;51.148;7.014;2023-07-29T11:12:33;2.20;;;0.80;;
6755;SDS011;3415;51.148;7.014;2023-07-29T11:15:12;1.00;;;0.90;;
6755;SDS011;3415;51.148;7.014;2023-07-29T11:17:50;1.87;;;1.00;;
6755;SDS011;3415;51.148;7.014;2023-07-29T11:20:19;1.57;;;1.40;;
6755;SDS011;3415;51.148;7.014;2023-07-29T11:22:48;1.30;;;1.20;;
6755;SDS011;3415;51.148;7.014;2023-07-29T11:25:16;1.40;;;1.10;;
6755;SDS011;3415;51.148;7.014;2023-07-29T11:27:45;1.43;;;1.13;;
6755;SDS011;3415;51.148;7.014;2023-07-29T11:30:13;3.27;;;1.50;;
6755;SDS011;3415;51.148;7.014;2023-07-29T11:32:43;1.77;;;1.17;;
6755;SDS011;3415;51.148;7.014;2023-07-29T11:35:14;2.17;;;1.20;;
6755;SDS011;3415;51.148;7.014;2023-07-29T11:37:44;1.37;;;1.10;;
6755;SDS011;3415;51.148;7.014;2023-07-29T11:40:13;1.77;;;1.00;;
6755;SDS011;3415;51.148;7.014;2023-07-29T11:42:41;1.60;;;1.50;;
6755;SDS011;3415;51.148;7.014;2023-07-29T11:45:08;1.40;;;1.30;;
6755;SDS011;3415;51.148;7.014;2023-07-29T11:47:36;1.90;;;1.50;;
6755;SDS011;3415;51.148;7.014;2023-07-29T11:50:03;2.60;;;1.40;;
6755;SDS011;3415;51.148;7.014;2023-07-29T11:52:35;1.30;;;1.20;;
6755;SDS011;3415;51.148;7.014;2023-07-29T11:55:04;1.50;;;1.40;;
6755;SDS011;3415;51.148;7.014;2023-07-29T11:57:33;3.20;;;1.40;;
6755;SDS011;3415;51.148;7.014;2023-07-29T12:00:03;1.10;;;1.00;;
6755;SDS011;3415;51.148;7.014;2023-07-29T12:02:32;1.27;;;1.07;;
6755;SDS011;3415;51.148;7.014;2023-07-29T12:05:02;1.13;;;1.10;;
6755;SDS011;3415;51.148;7.014;2023-07-29T12:07:30;1.83;;;1.73;;
6755;SDS011;3415;51.148;7.014;2023-07-29T12:09:59;1.30;;;1.27;;
6755;SDS011;3415;51.148;7.014;2023-07-29T12:12:28;1.67;;;1.57;;
6755;SDS011;3415;51.148;7.014;2023-07-29T12:14:56;5.23;;;1.60;;
6755;SDS011;3415;51.148;7.014;2023-07-29T12:17:23;1.60;;;1.50;;
6755;SDS011;3415;51.148;7.014;2023-07-29T12:19:53;1.93;;;1.50;;
6755;SDS011;3415;51.148;7.014;2023-07-29T12:22:21;2.93;;;1.47;;
6755;SDS011;3415;51.148;7.014;2023-07-29T12:24:48;4.50;;;1.60;;
6755;SDS011;3415;51.148;7.014;2023-07-29T12:27:21;1.50;;;1.40;;
6755;SDS011;3415;51.148;7.014;2023-07-29T12:29:48;1.20;;;1.20;;
6755;SDS011;3415;51.148;7.014;2023-07-29T12:32:18;1.57;;;1.47;;
6755;SDS011;3415;51.148;7.014;2023-07-29T12:34:45;1.07;;;1.00;;
6755;SDS011;3415;51.148;7.014;2023-07-29T12:37:12;1.33;;;1.23;;
6755;SDS011;3415;51.148;7.014;2023-07-29T12:39:39;2.50;;;1.40;;
6755;SDS011;3415;51.148;7.014;2023-07-29T12:42:07;1.27;;;1.20;;
6755;SDS011;3415;51.148;7.014;2023-07-29T12:44:36;1.70;;;1.60;;
6755;SDS011;3415;51.148;7.014;2023-07-29T12:47:05;1.40;;;1.30;;
6755;SDS011;3415;51.148;7.014;2023-07-29T12:49:33;1.40;;;1.30;;
6755;SDS011;3415;51.148;7.014;2023-07-29T12:52:00;2.63;;;1.33;;
6755;SDS011;3415;51.148;7.014;2023-07-29T12:54:27;1.20;;;1.10;;
6755;SDS011;3415;51.148;7.014;2023-07-29T12:56:54;1.00;;;0.90;;
6755;SDS011;3415;51.148;7.014;2023-07-29T12:59:21;1.20;;;1.20;;
6755;SDS011;3415;51.148;7.014;2023-07-29T13:01:50;1.30;;;1.20;;
6755;SDS011;3415;51.148;7.014;2023-07-29T13:04:16;1.70;;;1.40;;
6755;SDS011;3415;51.148;7.014;2023-07-29T13:06:43;1.50;;;1.40;;
6755;SDS011;3415;51.148;7.014;2023-07-29T13:09:10;1.20;;;1.20;;
6755;SDS011;3415;51.148;7.014;2023-07-29T13:11:37;3.33;;;1.20;;
6755;SDS011;3415;51.148;7.014;2023-07-29T13:14:04;1.77;;;1.60;;
6755;SDS011;3415;51.148;7.014;2023-07-29T13:16:31;1.50;;;1.30;;
6755;SDS011;3415;51.148;7.014;2023-07-29T13:18:59;2.03;;;1.40;;
6755;SDS011;3415;51.148;7.014;2023-07-29T13:21:26;1.33;;;1.23;;
6755;SDS011;3415;51.148;7.014;2023-07-29T13:23:53;1.30;;;1.20;;
6755;SDS011;3415;51.148;7.014;2023-07-29T13:26:20;1.30;;;1.20;;
6755;SDS011;3415;51.148;7.014;2023-07-29T13:28:47;5.90;;;1.33;;
6755;SDS011;3415;51.148;7.014;2023-07-29T13:31:14;1.43;;;1.33;;
6755;SDS011;3415;51.148;7.014;2023-07-29T13:33:41;1.20;;;1.17;;
6755;SDS011;3415;51.148;7.014;2023-07-29T13:36:09;1.80;;;1.27;;
6755;SDS011;3415;51.148;7.014;2023-07-29T13:38:36;2.13;;;1.33;;
6755;SDS011;3415;51.148;7.014;2023-07-29T13:41:03;1.70;;;1.33;;
6755;SDS011;3415;51.148;7.014;2023-07-29T13:43:30;1.40;;;1.30;;
6755;SDS011;3415;51.148;7.014;2023-07-29T13:45:57;1.30;;;1.20;;
6755;SDS011;3415;51.148;7.014;2023-07-29T13:48:24;1.20;;;1.20;;
6755;SDS011;3415;51.148;7.014;2023-07-29T13:50:51;1.90;;;1.30;;
6755;SDS011;3415;51.148;7.014;2023-07-29T13:53:19;1.67;;;1.10;;
6755;SDS011;3415;51.148;7.014;2023-07-29T13:55:46;2.10;;;1.77;;
6755;SDS011;3415;51.148;7.014;2023-07-29T13:58:13;1.77;;;1.40;;
6755;SDS011;3415;51.148;7.014;2023-07-29T14:00:40;2.00;;;1.60;;
6755;SDS011;3415;51.148;7.014;2023-07-29T14:03:08;1.40;;;1.30;;
6755;SDS011;3415;51.148;7.014;2023-07-29T14:05:35;1.50;;;1.40;;
6755;SDS011;3415;51.148;7.014;2023-07-29T14:08:02;1.83;;;1.70;;
6755;SDS011;3415;51.148;7.014;2023-07-29T14:10:31;1.40;;;1.30;;
6755;SDS011;3415;51.148;7.014;2023-07-29T14:12:57;3.43;;;1.70;;
6755;SDS011;3415;51.148;7.014;2023-07-29T14:15:24;1.60;;;1.50;;
6755;SDS011;3415;51.148;7.014;2023-07-29T14:17:53;1.80;;;1.63;;
6755;SDS011;3415;51.148;7.014;2023-07-29T14:20:20;3.27;;;1.90;;
6755;SDS011;3415;51.148;7.014;2023-07-29T14:22:47;8.10;;;1.97;;
6755;SDS011;3415;51.148;7.014;2023-07-29T14:25:14;3.40;;;1.70;;
6755;SDS011;3415;51.148;7.014;2023-07-29T14:27:43;3.97;;;1.83;;
6755;SDS011;3415;51.148;7.014;2023-07-29T14:30:10;3.80;;;1.90;;
6755;SDS011;3415;51.148;7.014;2023-07-29T14:32:37;2.13;;;1.97;;
6755;SDS011;3415;51.148;7.014;2023-07-29T14:35:04;1.80;;;1.70;;
6755;SDS011;3415;51.148;7.014;2023-07-29T14:37:33;1.90;;;1.80;;
6755;SDS011;3415;51.148;7.014;2023-07-29T14:40:00;3.87;;;1.43;;
6755;SDS011;3415;51.148;7.014;2023-07-29T14:42:27;2.17;;;1.97;;
6755;SDS011;3415;51.148;7.014;2023-07-29T14:44:56;2.43;;;1.43;;
6755;SDS011;3415;51.148;7.014;2023-07-29T14:47:23;3.10;;;1.80;;
6755;SDS011;3415;51.148;7.014;2023-07-29T14:49:50;2.33;;;1.80;;
6755;SDS011;3415;51.148;7.014;2023-07-29T14:52:17;2.23;;;1.63;;
6755;SDS011;3415;51.148;7.014;2023-07-29T14:54:43;2.00;;;1.83;;
6755;SDS011;3415;51.148;7.014;2023-07-29T14:57:10;2.43;;;1.80;;
6755;SDS011;3415;51.148;7.014;2023-07-29T14:59:37;2.90;;;1.57;;
6755;SDS011;3415;51.148;7.014;2023-07-29T15:02:07;1.30;;;1.27;;
6755;SDS011;3415;51.148;7.014;2023-07-29T15:04:34;1.50;;;1.40;;
6755;SDS011;3415;51.148;7.014;2023-07-29T15:07:02;1.63;;;1.53;;
6755;SDS011;3415;51.148;7.014;2023-07-29T15:09:29;2.90;;;2.20;;
6755;SDS011;3415;51.148;7.014;2023-07-29T15:11:56;3.10;;;1.80;;
6755;SDS011;3415;51.148;7.014;2023-07-29T15:14:23;1.70;;;1.57;;
6755;SDS011;3415;51.148;7.014;2023-07-29T15:16:50;1.53;;;1.43;;
6755;SDS011;3415;51.148;7.014;2023-07-29T15:19:18;2.17;;;1.90;;
6755;SDS011;3415;51.148;7.014;2023-07-29T15:21:45;1.50;;;1.40;;
6755;SDS011;3415;51.148;7.014;2023-07-29T15:24:12;1.73;;;1.60;;
6755;SDS011;3415;51.148;7.014;2023-07-29T15:26:39;2.23;;;1.57;;
6755;SDS011;3415;51.148;7.014;2023-07-29T15:29:07;1.30;;;1.20;;